Time;durP1;ratioP1;P1;durP2;ratioP2;P2;SDS_P1;SDS_P2;PMS_P1;PMS_P2;Temp;Humidity;BMP_temperature;BMP_pressure;BME280_temperature;BME280_humidity;BME280_pressure;Samples;Min_cycle;Max_cycle;Signal;HPM_P1;HPM_P2
2022/08/02 00:02:20;;;;;;;10.75;6.15;;;20.60;73.40;;;;;;5065594;28;20036;-80
2022/08/02 00:04:46;;;;;;;10.43;7.13;;;20.60;73.60;;;;;;5064526;28;20039;-82
2022/08/02 00:07:13;;;;;;;11.35;7.22;;;20.60;74.10;;;;;;5063581;28;20086;-81
2022/08/02 00:09:39;;;;;;;10.90;7.55;;;20.50;74.30;;;;;;5060471;28;20086;-83
2022/08/02 00:12:05;;;;;;;10.23;7.32;;;20.50;74.50;;;;;;5059945;28;20058;-85
2022/08/02 00:14:30;;;;;;;12.82;8.88;;;20.50;74.60;;;;;;5061149;28;20061;-81
2022/08/02 00:16:56;;;;;;;10.85;8.48;;;20.50;74.90;;;;;;5067651;28;20642;-81
2022/08/02 00:19:22;;;;;;;11.75;8.40;;;20.50;75.00;;;;;;5064706;28;20766;-81
2022/08/02 00:21:47;;;;;;;14.00;10.00;;;20.40;75.20;;;;;;5064012;28;20086;-85
2022/08/02 00:24:13;;;;;;;13.65;10.02;;;20.40;75.50;;;;;;5066343;28;20117;-82
2022/08/02 00:26:39;;;;;;;16.70;11.60;;;20.40;75.40;;;;;;5060000;28;20123;-81
2022/08/02 00:29:04;;;;;;;16.75;11.82;;;20.30;75.80;;;;;;5065262;28;20032;-82
2022/08/02 00:31:30;;;;;;;17.52;12.07;;;20.30;76.20;;;;;;5066237;28;20493;-81
2022/08/02 00:33:56;;;;;;;15.07;11.48;;;20.30;76.30;;;;;;5065022;28;20491;-81
2022/08/02 00:36:21;;;;;;;15.50;12.05;;;20.30;76.20;;;;;;5066621;28;20055;-82
2022/08/02 00:38:47;;;;;;;16.33;11.50;;;20.20;76.40;;;;;;5065874;28;20048;-81
2022/08/02 00:41:18;;;;;;;15.70;12.20;;;20.10;76.50;;;;;;5059277;28;20037;-82
2022/08/02 00:43:45;;;;;;;18.70;13.52;;;20.20;76.60;;;;;;5065362;28;20850;-81
2022/08/02 00:46:11;;;;;;;18.05;14.75;;;20.10;77.00;;;;;;5070514;28;20064;-81
2022/08/02 00:48:37;;;;;;;17.90;14.38;;;20.10;77.30;;;;;;5057686;28;20650;-82
2022/08/02 00:51:03;;;;;;;21.35;15.57;;;20.00;77.60;;;;;;5067392;28;20028;-82
2022/08/02 00:53:29;;;;;;;18.20;14.02;;;20.00;77.70;;;;;;5064149;28;20396;-80
2022/08/02 00:55:54;;;;;;;20.65;14.23;;;20.00;77.90;;;;;;5066394;28;20043;-81
2022/08/02 00:58:20;;;;;;;17.27;13.57;;;20.00;78.00;;;;;;5063533;28;20044;-83
2022/08/02 01:00:46;;;;;;;18.95;15.07;;;19.90;77.90;;;;;;5065218;28;20029;-80
2022/08/02 01:03:12;;;;;;;20.98;14.75;;;19.90;78.00;;;;;;5063347;28;20476;-82
2022/08/02 01:05:38;;;;;;;15.48;13.07;;;19.90;78.10;;;;;;5066455;28;20040;-79
2022/08/02 01:08:03;;;;;;;17.13;13.35;;;19.90;78.20;;;;;;5064999;28;20537;-80
2022/08/02 01:10:29;;;;;;;16.05;11.40;;;19.80;78.20;;;;;;5068760;28;20500;-80
2022/08/02 01:12:55;;;;;;;17.27;10.63;;;19.80;78.10;;;;;;5067623;28;20044;-81
2022/08/02 01:15:21;;;;;;;15.73;11.10;;;19.80;78.00;;;;;;5066862;28;20036;-81
2022/08/02 01:17:54;;;;;;;16.50;10.68;;;19.80;78.00;;;;;;5066171;28;20044;-82
2022/08/02 01:20:47;;;;;;;13.82;9.75;;;19.80;78.00;;;;;;5065596;28;20040;-80
2022/08/02 01:23:25;;;;;;;15.25;10.50;;;19.70;77.90;;;;;;5064571;28;20035;-81
2022/08/02 01:26:42;;;;;;;15.90;11.00;;;19.70;77.80;;;;;;5064349;28;20060;-80
2022/08/02 01:29:29;;;;;;;14.70;10.65;;;19.60;77.60;;;;;;5060862;28;20032;-80
2022/08/02 01:32:17;;;;;;;13.77;10.15;;;19.60;77.60;;;;;;5062351;28;20075;-80
2022/08/02 01:34:51;;;;;;;13.10;9.30;;;19.50;77.60;;;;;;5065274;28;20094;-80
2022/08/02 01:37:23;;;;;;;14.57;9.57;;;19.50;77.80;;;;;;5065077;28;20033;-80
2022/08/02 01:40:09;;;;;;;12.88;8.65;;;19.50;77.90;;;;;;5067139;28;20029;-81
2022/08/02 01:42:37;;;;;;;15.40;10.80;;;19.50;77.70;;;;;;5059596;28;20138;-84
2022/08/02 01:45:05;;;;;;;12.27;8.43;;;19.40;77.70;;;;;;5069838;28;20043;-81
2022/08/02 01:47:37;;;;;;;14.00;9.48;;;19.40;77.90;;;;;;5059122;28;20037;-81
2022/08/02 01:50:06;;;;;;;13.10;8.57;;;19.50;77.80;;;;;;5064254;28;20447;-81
2022/08/02 01:52:35;;;;;;;13.20;9.00;;;19.50;77.90;;;;;;5060616;28;20079;-80
2022/08/02 01:55:05;;;;;;;13.30;8.82;;;19.50;77.90;;;;;;5063855;28;20036;-83
2022/08/02 01:57:36;;;;;;;13.05;9.43;;;19.40;78.00;;;;;;5061530;28;20044;-80
2022/08/02 02:00:05;;;;;;;13.20;8.65;;;19.50;78.10;;;;;;5063101;28;20043;-81
2022/08/02 02:02:34;;;;;;;11.90;7.80;;;19.40;78.10;;;;;;5065539;28;20494;-83
2022/08/02 02:05:01;;;;;;;12.75;8.55;;;19.30;78.10;;;;;;5062990;28;20036;-80
2022/08/02 02:07:29;;;;;;;11.43;8.20;;;19.30;78.30;;;;;;5060386;28;20151;-80
2022/08/02 02:09:57;;;;;;;13.38;8.77;;;19.20;78.50;;;;;;5064214;28;20029;-80
2022/08/02 02:12:24;;;;;;;11.30;8.35;;;19.20;78.50;;;;;;5069841;28;20047;-80
2022/08/02 02:14:51;;;;;;;14.00;8.90;;;19.20;78.70;;;;;;5062701;28;20086;-80
2022/08/02 02:17:19;;;;;;;15.25;10.57;;;19.20;78.90;;;;;;5064775;28;20039;-80
2022/08/02 02:19:46;;;;;;;15.60;9.43;;;19.10;79.00;;;;;;5062429;28;20422;-82
2022/08/02 02:22:12;;;;;;;15.63;10.30;;;19.10;79.10;;;;;;5061091;28;20068;-84
2022/08/02 02:24:38;;;;;;;15.25;10.13;;;19.10;79.30;;;;;;5063039;28;20102;-81
2022/08/02 02:27:08;;;;;;;15.63;9.68;;;19.10;79.60;;;;;;5062645;28;20048;-80
2022/08/02 02:29:36;;;;;;;15.25;9.50;;;19.10;79.40;;;;;;5066257;28;20361;-82
2022/08/02 02:32:04;;;;;;;13.45;10.35;;;19.00;79.70;;;;;;5061283;28;20059;-81
2022/08/02 02:34:38;;;;;;;19.45;11.07;;;19.10;79.90;;;;;;5068565;28;20066;-81
2022/08/02 02:37:07;;;;;;;16.33;11.07;;;19.00;79.80;;;;;;5062455;28;20700;-80
2022/08/02 02:39:34;;;;;;;17.77;10.63;;;19.00;80.10;;;;;;5064920;28;20033;-81
2022/08/02 02:42:02;;;;;;;13.93;10.55;;;18.90;80.40;;;;;;5062030;28;20143;-81
2022/08/02 02:44:29;;;;;;;15.85;11.10;;;18.90;80.40;;;;;;5069479;28;20028;-81
2022/08/02 02:46:56;;;;;;;14.73;11.15;;;18.80;80.40;;;;;;5062862;28;20819;-81
2022/08/02 02:49:23;;;;;;;15.27;11.18;;;18.70;80.80;;;;;;5063382;28;20029;-81
2022/08/02 02:51:50;;;;;;;16.35;11.07;;;18.70;81.10;;;;;;5057786;28;20040;-80
2022/08/02 02:54:17;;;;;;;14.13;10.70;;;18.70;81.20;;;;;;5063346;28;20704;-80
2022/08/02 02:56:44;;;;;;;14.50;10.43;;;18.60;81.40;;;;;;5062662;28;20116;-80
2022/08/02 02:59:12;;;;;;;14.45;11.10;;;18.60;81.30;;;;;;5065169;28;20028;-80
2022/08/02 03:01:39;;;;;;;15.20;10.68;;;18.60;81.40;;;;;;5060481;28;20467;-80
2022/08/02 03:04:06;;;;;;;14.35;10.25;;;18.60;81.60;;;;;;5063170;28;20115;-81
2022/08/02 03:06:34;;;;;;;18.40;11.40;;;18.60;81.50;;;;;;5062953;28;20059;-80
2022/08/02 03:09:00;;;;;;;17.23;11.45;;;18.60;81.60;;;;;;5061973;28;20029;-85
2022/08/02 03:11:28;;;;;;;17.20;10.75;;;18.60;81.80;;;;;;5062466;28;20114;-81
2022/08/02 03:13:59;;;;;;;18.38;12.13;;;18.60;81.80;;;;;;5063069;28;20548;-81
2022/08/02 03:16:27;;;;;;;15.05;11.50;;;18.60;81.90;;;;;;5061331;28;20040;-83
2022/08/02 03:18:53;;;;;;;18.10;11.35;;;18.50;82.20;;;;;;5062612;28;20491;-80
2022/08/02 03:21:19;;;;;;;15.13;10.65;;;18.50;82.50;;;;;;5065962;28;20392;-81
2022/08/02 03:23:45;;;;;;;14.18;10.70;;;18.50;82.30;;;;;;5067611;28;20043;-81
2022/08/02 03:26:11;;;;;;;15.13;12.02;;;18.40;82.20;;;;;;5063151;28;20053;-81
2022/08/02 03:28:36;;;;;;;15.02;10.77;;;18.50;82.20;;;;;;5063855;28;20488;-84
2022/08/02 03:31:02;;;;;;;16.63;11.50;;;18.40;82.50;;;;;;5064811;28;20505;-81
2022/08/02 03:33:29;;;;;;;16.48;11.40;;;18.40;82.50;;;;;;5061379;28;20298;-81
2022/08/02 03:35:57;;;;;;;15.63;11.05;;;18.40;82.60;;;;;;5058073;28;20040;-81
2022/08/02 03:38:25;;;;;;;17.73;12.32;;;18.40;82.70;;;;;;5061719;28;20041;-81
2022/08/02 03:40:52;;;;;;;14.50;11.55;;;18.30;82.90;;;;;;5063818;28;20442;-81
2022/08/02 03:43:18;;;;;;;14.65;10.82;;;18.30;83.10;;;;;;5055027;28;20091;-83
2022/08/02 03:45:48;;;;;;;17.63;11.90;;;18.30;83.10;;;;;;5057169;28;20409;-82
2022/08/02 03:48:15;;;;;;;17.40;12.27;;;18.20;83.20;;;;;;5062115;28;20140;-81
2022/08/02 03:50:42;;;;;;;13.60;10.32;;;18.20;83.30;;;;;;5062475;28;20496;-80
2022/08/02 03:53:08;;;;;;;17.15;12.18;;;18.20;83.30;;;;;;5064576;28;20064;-81
2022/08/02 03:55:34;;;;;;;18.83;12.35;;;18.20;83.40;;;;;;5064391;28;20090;-81
2022/08/02 03:58:00;;;;;;;16.45;12.23;;;18.10;83.60;;;;;;5064625;28;20125;-80
2022/08/02 04:00:27;;;;;;;18.80;11.75;;;18.10;83.70;;;;;;5062298;28;20388;-79
2022/08/02 04:02:53;;;;;;;13.57;11.23;;;18.10;83.70;;;;;;5064110;28;20036;-79
2022/08/02 04:05:18;;;;;;;17.25;13.25;;;18.10;84.00;;;;;;5064975;28;20045;-81
2022/08/02 04:07:45;;;;;;;15.93;12.40;;;18.10;83.90;;;;;;5064166;28;20495;-80
2022/08/02 04:10:11;;;;;;;16.95;12.63;;;18.00;84.00;;;;;;5063776;28;20045;-80
2022/08/02 04:12:38;;;;;;;19.48;12.30;;;18.00;84.10;;;;;;5069941;28;20044;-80
2022/08/02 04:15:05;;;;;;;17.40;12.32;;;18.00;84.10;;;;;;5063332;28;20090;-81
2022/08/02 04:17:33;;;;;;;17.35;12.45;;;17.90;84.00;;;;;;5060403;28;20438;-83
2022/08/02 04:20:17;;;;;;;16.65;11.38;;;17.90;84.20;;;;;;5072798;28;20098;-80
2022/08/02 04:23:05;;;;;;;18.10;13.05;;;17.90;84.20;;;;;;5060389;28;20036;-80
2022/08/02 04:25:34;;;;;;;17.17;12.32;;;17.90;84.10;;;;;;5062516;28;20041;-80
2022/08/02 04:28:00;;;;;;;17.17;13.05;;;17.90;84.10;;;;;;5061575;28;20741;-80
2022/08/02 04:30:27;;;;;;;17.65;12.15;;;17.90;84.10;;;;;;5061233;28;20423;-80
2022/08/02 04:32:54;;;;;;;15.27;13.00;;;17.90;84.10;;;;;;5056374;28;20496;-80
2022/08/02 04:35:20;;;;;;;21.02;12.25;;;17.90;84.10;;;;;;5064062;28;20394;-80
2022/08/02 04:37:46;;;;;;;16.50;12.35;;;17.80;84.00;;;;;;5061776;28;20068;-81
2022/08/02 04:40:12;;;;;;;16.27;11.93;;;18.00;83.80;;;;;;5060609;28;21215;-82
2022/08/02 04:42:38;;;;;;;14.38;10.70;;;18.00;83.80;;;;;;5060603;28;20033;-80
2022/08/02 04:45:06;;;;;;;18.25;12.00;;;17.90;83.90;;;;;;5062709;28;20036;-80
2022/08/02 04:47:32;;;;;;;17.52;11.65;;;18.00;83.60;;;;;;5061149;28;20493;-81
2022/08/02 04:49:57;;;;;;;17.88;12.43;;;18.00;83.70;;;;;;5064858;28;20107;-81
2022/08/02 04:52:23;;;;;;;17.13;12.38;;;18.10;83.40;;;;;;5060793;28;20121;-81
2022/08/02 04:54:50;;;;;;;15.35;12.25;;;18.10;83.10;;;;;;5061269;28;20406;-79
2022/08/02 05:00:01;;;;;;;19.25;15.00;;;18.10;83.10;;;;;;5063193;28;20035;-81
2022/08/02 05:02:27;;;;;;;16.33;12.30;;;18.10;82.80;;;;;;5064091;28;20147;-84
2022/08/02 05:04:53;;;;;;;16.10;11.55;;;18.10;82.90;;;;;;5066713;28;20135;-80
2022/08/02 05:07:18;;;;;;;15.68;12.07;;;18.10;82.80;;;;;;5067397;28;20029;-81
2022/08/02 05:09:44;;;;;;;15.07;12.77;;;18.20;82.70;;;;;;5067375;28;20029;-80
2022/08/02 05:12:09;;;;;;;16.58;11.93;;;18.30;82.30;;;;;;5062897;28;20146;-81
2022/08/02 05:14:35;;;;;;;16.92;12.07;;;18.20;82.30;;;;;;5069072;28;20036;-82
2022/08/02 05:17:01;;;;;;;15.43;11.85;;;18.20;82.20;;;;;;5068026;28;20551;-80
2022/08/02 05:19:26;;;;;;;17.60;12.18;;;18.20;82.40;;;;;;5068292;28;20420;-80
2022/08/02 05:21:52;;;;;;;16.45;12.15;;;18.20;82.20;;;;;;5069705;28;20044;-81
2022/08/02 05:24:18;;;;;;;15.88;11.38;;;18.30;82.00;;;;;;5066721;28;20044;-80
2022/08/02 05:26:43;;;;;;;16.77;11.60;;;18.40;82.00;;;;;;5065682;28;20036;-82
2022/08/02 05:29:09;;;;;;;16.00;11.15;;;18.80;81.40;;;;;;5065054;28;20124;-80
2022/08/02 05:31:35;;;;;;;13.30;9.27;;;20.00;76.90;;;;;;5066003;28;20440;-80
2022/08/02 05:34:00;;;;;;;13.02;8.93;;;21.40;72.50;;;;;;5067630;28;20480;-80
2022/08/02 05:36:26;;;;;;;12.75;8.40;;;22.40;68.20;;;;;;5062952;28;20043;-79
2022/08/02 05:38:52;;;;;;;11.95;8.18;;;22.80;66.40;;;;;;5063888;28;20040;-79
2022/08/02 05:41:18;;;;;;;14.13;8.93;;;22.60;66.10;;;;;;5063835;28;20537;-80
2022/08/02 05:43:45;;;;;;;13.05;9.13;;;22.00;67.30;;;;;;5054129;28;20040;-78
2022/08/02 05:46:11;;;;;;;14.02;9.80;;;21.40;69.60;;;;;;5062747;28;20063;-80
2022/08/02 05:48:37;;;;;;;15.85;8.98;;;20.90;71.40;;;;;;5065297;28;20127;-80
2022/08/02 05:51:24;;;;;;;14.05;9.70;;;20.50;73.10;;;;;;5069200;28;20036;-80
2022/08/02 05:53:55;;;;;;;13.23;9.38;;;20.60;73.70;;;;;;5068629;28;20040;-80
2022/08/02 05:56:57;;;;;;;11.88;7.75;;;21.50;71.80;;;;;;5062239;28;20079;-78
2022/08/02 05:59:29;;;;;;;13.88;8.15;;;22.60;67.70;;;;;;5018010;28;20049;-79
2022/08/02 06:01:59;;;;;;;12.18;8.65;;;22.80;66.60;;;;;;5068176;28;20060;-79
2022/08/02 06:04:33;;;;;;;11.98;8.52;;;22.60;66.70;;;;;;5060650;28;20052;-82
2022/08/02 06:07:05;;;;;;;12.52;7.70;;;22.30;67.80;;;;;;5065919;28;20298;-83
2022/08/02 06:09:33;;;;;;;12.40;8.60;;;21.60;69.90;;;;;;5067410;28;20040;-81
2022/08/02 06:12:00;;;;;;;15.52;9.10;;;21.20;71.10;;;;;;5065076;28;20036;-81
2022/08/02 06:14:27;;;;;;;13.77;8.57;;;20.80;72.90;;;;;;5065610;28;20506;-81
2022/08/02 06:16:54;;;;;;;14.40;8.07;;;20.60;73.60;;;;;;5064422;28;20067;-80
2022/08/02 06:19:21;;;;;;;11.50;7.47;;;20.50;73.80;;;;;;5059426;28;20033;-81
2022/08/02 06:21:48;;;;;;;12.02;7.60;;;20.40;74.90;;;;;;5061223;28;20547;-82
2022/08/02 06:24:18;;;;;;;14.35;7.95;;;20.50;74.50;;;;;;5062616;28;20043;-81
2022/08/02 06:26:44;;;;;;;11.18;6.82;;;20.40;74.90;;;;;;5064665;28;20032;-80
2022/08/02 06:29:12;;;;;;;10.80;6.75;;;20.50;75.10;;;;;;5064489;28;20380;-80
2022/08/02 06:31:40;;;;;;;10.80;6.32;;;20.60;74.80;;;;;;5063549;28;20064;-81
2022/08/02 06:34:06;;;;;;;10.02;5.78;;;20.70;74.30;;;;;;5068879;28;20051;-80
2022/08/02 06:36:46;;;;;;;10.63;6.10;;;20.90;73.80;;;;;;5067227;28;20052;-79
2022/08/02 06:39:24;;;;;;;10.50;5.75;;;21.00;72.70;;;;;;5071320;28;20052;-81
2022/08/02 06:41:53;;;;;;;9.82;6.03;;;21.10;72.70;;;;;;5063944;28;20036;-79
2022/08/02 06:44:19;;;;;;;10.50;5.78;;;21.10;72.30;;;;;;5070764;28;20258;-80
2022/08/02 06:46:44;;;;;;;10.60;5.43;;;21.20;71.80;;;;;;5066555;28;20495;-82
2022/08/02 06:49:10;;;;;;;9.98;5.78;;;21.20;71.80;;;;;;5060228;28;20120;-79
2022/08/02 06:51:36;;;;;;;11.70;5.60;;;21.30;71.70;;;;;;5062132;28;20490;-79
2022/08/02 06:54:01;;;;;;;9.55;5.20;;;21.40;71.40;;;;;;5069060;28;20036;-81
2022/08/02 06:56:27;;;;;;;9.40;4.50;;;21.40;71.10;;;;;;5065104;28;20043;-79
2022/08/02 06:58:53;;;;;;;8.52;4.70;;;21.50;70.90;;;;;;5070693;28;20484;-80
2022/08/02 07:01:18;;;;;;;8.55;4.70;;;21.60;70.10;;;;;;5068144;28;20044;-79
2022/08/02 07:03:44;;;;;;;9.18;4.50;;;21.80;70.00;;;;;;5061663;28;20483;-80
2022/08/02 07:06:10;;;;;;;8.90;4.78;;;21.80;69.00;;;;;;5067256;28;20776;-79
2022/08/02 07:08:37;;;;;;;9.43;4.45;;;21.80;69.10;;;;;;5067035;28;20028;-83
2022/08/02 07:11:07;;;;;;;8.43;3.92;;;22.00;68.50;;;;;;5061684;28;20421;-80
2022/08/02 07:13:33;;;;;;;8.23;3.53;;;22.00;68.20;;;;;;5063759;28;20072;-80
2022/08/02 07:15:59;;;;;;;9.48;4.10;;;22.10;67.80;;;;;;5066000;28;20068;-82
2022/08/02 07:18:25;;;;;;;6.75;3.50;;;22.50;67.40;;;;;;5070314;28;20033;-85
2022/08/02 07:20:51;;;;;;;6.85;3.10;;;22.70;66.50;;;;;;5076148;28;20423;-82
2022/08/02 07:23:17;;;;;;;6.38;3.03;;;22.90;65.60;;;;;;5065495;28;20547;-75
2022/08/02 07:25:43;;;;;;;6.07;3.00;;;23.10;64.10;;;;;;5061030;28;20056;-75
2022/08/02 07:28:09;;;;;;;9.13;3.20;;;23.40;63.30;;;;;;5065216;28;20037;-77
2022/08/02 07:30:36;;;;;;;6.25;2.95;;;23.60;63.20;;;;;;5063176;28;20518;-75
2022/08/02 07:33:02;;;;;;;7.65;2.90;;;23.50;63.30;;;;;;5057909;28;20045;-75
2022/08/02 07:35:28;;;;;;;5.97;2.78;;;23.60;62.80;;;;;;5067460;28;20043;-76
2022/08/02 07:37:54;;;;;;;5.97;2.70;;;23.70;62.70;;;;;;5063823;28;20040;-75
2022/08/02 07:40:21;;;;;;;7.85;2.70;;;23.70;62.70;;;;;;5059338;28;20492;-76
2022/08/02 07:42:51;;;;;;;6.30;2.83;;;23.70;63.10;;;;;;5059640;28;20090;-75
2022/08/02 07:45:17;;;;;;;6.82;2.63;;;23.90;62.30;;;;;;5064669;28;20627;-76
2022/08/02 07:47:44;;;;;;;6.00;2.40;;;24.20;60.80;;;;;;5057947;28;20083;-73
2022/08/02 07:50:11;;;;;;;5.93;2.33;;;24.40;60.00;;;;;;5060875;28;20048;-82
2022/08/02 07:52:37;;;;;;;5.78;2.22;;;24.20;60.40;;;;;;5060842;28;20080;-78
2022/08/02 07:55:03;;;;;;;6.90;2.72;;;24.10;60.10;;;;;;5061697;28;20060;-78
2022/08/02 07:57:29;;;;;;;7.88;2.72;;;24.20;60.30;;;;;;5063306;28;20484;-79
2022/08/02 07:59:55;;;;;;;5.43;2.40;;;24.20;60.20;;;;;;5066322;28;20054;-75
2022/08/02 08:02:23;;;;;;;5.82;2.30;;;24.40;59.60;;;;;;5062906;28;20190;-76
2022/08/02 08:04:49;;;;;;;5.57;2.72;;;24.50;59.40;;;;;;5063825;28;20423;-74
2022/08/02 08:07:15;;;;;;;7.55;2.35;;;24.60;59.50;;;;;;5063010;28;20067;-76
2022/08/02 08:09:41;;;;;;;5.53;2.40;;;24.50;58.50;;;;;;5059794;28;20539;-77
2022/08/02 08:12:10;;;;;;;5.20;2.50;;;24.60;58.50;;;;;;5062264;28;20605;-79
2022/08/02 08:14:37;;;;;;;5.90;2.33;;;24.80;58.10;;;;;;5064211;28;20571;-80
2022/08/02 08:17:03;;;;;;;6.05;2.35;;;25.00;57.20;;;;;;5061673;28;20043;-77
2022/08/02 08:19:29;;;;;;;5.40;2.45;;;24.90;57.80;;;;;;5063640;28;20043;-78
2022/08/02 08:21:55;;;;;;;5.75;2.83;;;25.10;58.20;;;;;;5059038;28;20036;-79
2022/08/02 08:24:20;;;;;;;3.95;2.00;;;25.30;57.30;;;;;;5062162;28;20511;-78
2022/08/02 08:26:46;;;;;;;5.95;2.20;;;25.50;55.60;;;;;;5063085;28;20032;-76
2022/08/02 08:29:12;;;;;;;4.28;2.00;;;25.60;54.40;;;;;;5063437;28;20124;-78
2022/08/02 08:31:37;;;;;;;5.60;2.13;;;25.50;55.30;;;;;;5062143;28;20057;-77
2022/08/02 08:34:03;;;;;;;7.38;2.55;;;25.70;54.20;;;;;;5064302;28;20133;-76
2022/08/02 08:36:30;;;;;;;3.75;1.90;;;25.70;54.60;;;;;;5057696;28;20351;-79
2022/08/02 08:38:55;;;;;;;3.80;2.00;;;25.80;54.70;;;;;;5049127;28;20029;-79
2022/08/02 08:41:21;;;;;;;6.65;2.05;;;26.00;53.90;;;;;;5052124;28;20033;-81
2022/08/02 08:43:47;;;;;;;4.90;1.85;;;25.80;53.70;;;;;;5053196;28;20204;-80
2022/08/02 08:46:40;;;;;;;5.88;2.30;;;26.10;53.10;;;;;;5051069;28;20484;-81
2022/08/02 08:49:11;;;;;;;6.47;2.13;;;26.30;53.30;;;;;;5047698;28;20129;-81
2022/08/02 08:51:40;;;;;;;6.13;2.10;;;26.40;52.80;;;;;;5055638;28;20044;-81
2022/08/02 08:54:11;;;;;;;7.57;2.30;;;26.10;52.70;;;;;;5056887;28;20033;-79
2022/08/02 08:56:38;;;;;;;5.57;2.17;;;26.40;52.90;;;;;;5049966;28;20097;-80
2022/08/02 08:59:05;;;;;;;4.25;1.80;;;26.50;51.90;;;;;;5055195;28;20815;-81
2022/08/02 09:01:31;;;;;;;5.53;1.98;;;26.90;50.90;;;;;;5056730;28;20173;-79
2022/08/02 09:03:57;;;;;;;4.32;2.10;;;27.00;51.00;;;;;;5053818;28;20111;-80
2022/08/02 09:06:23;;;;;;;7.22;2.05;;;26.70;51.60;;;;;;5048956;28;20738;-81
2022/08/02 09:08:49;;;;;;;3.42;1.60;;;26.90;50.10;;;;;;5063957;28;20042;-79
2022/08/02 09:11:22;;;;;;;4.55;1.90;;;27.00;49.40;;;;;;5054376;28;20044;-80
2022/08/02 09:13:57;;;;;;;4.97;1.77;;;27.00;48.90;;;;;;5057399;28;20113;-79
2022/08/02 09:16:27;;;;;;;4.35;1.80;;;27.10;49.00;;;;;;5051043;28;20061;-78
2022/08/02 09:18:53;;;;;;;5.78;1.70;;;27.30;48.90;;;;;;5049140;28;20120;-78
2022/08/02 09:21:18;;;;;;;3.80;1.42;;;27.50;49.50;;;;;;5051319;28;20100;-79
2022/08/02 09:23:49;;;;;;;4.40;1.77;;;27.50;49.00;;;;;;5053691;28;20487;-78
2022/08/02 09:26:20;;;;;;;5.88;1.65;;;27.60;47.70;;;;;;5051200;28;20098;-80
2022/08/02 09:28:48;;;;;;;5.82;1.70;;;27.90;47.30;;;;;;5051761;28;20036;-80
2022/08/02 09:31:20;;;;;;;5.68;1.70;;;27.90;47.70;;;;;;5049485;28;20029;-79
2022/08/02 09:33:51;;;;;;;3.80;1.60;;;27.90;47.30;;;;;;5050980;28;20400;-80
2022/08/02 09:36:17;;;;;;;3.03;1.80;;;27.80;47.30;;;;;;5050989;28;20040;-80
2022/08/02 09:38:57;;;;;;;4.55;1.50;;;27.80;46.90;;;;;;5052262;28;20047;-80
2022/08/02 09:41:30;;;;;;;4.20;1.70;;;27.80;47.10;;;;;;5052001;28;20476;-80
2022/08/02 09:43:57;;;;;;;3.35;1.60;;;26.80;48.20;;;;;;5050733;28;20150;-80
2022/08/02 09:46:29;;;;;;;4.05;1.70;;;26.70;49.00;;;;;;5053441;28;20032;-80
2022/08/02 09:49:07;;;;;;;4.10;2.10;;;26.80;50.00;;;;;;5051053;28;20375;-79
2022/08/02 09:51:34;;;;;;;5.38;1.98;;;27.00;49.60;;;;;;5051762;28;20036;-78
2022/08/02 09:54:10;;;;;;;4.63;2.00;;;27.00;49.60;;;;;;5051215;28;20131;-80
2022/08/02 09:56:57;;;;;;;6.78;1.70;;;26.90;49.90;;;;;;5067363;28;20438;-78
2022/08/02 09:59:24;;;;;;;3.72;1.73;;;26.90;49.60;;;;;;5052998;28;20047;-78
2022/08/02 10:01:50;;;;;;;6.50;1.75;;;27.00;49.60;;;;;;5047865;28;20033;-80
2022/08/02 10:04:20;;;;;;;4.47;1.67;;;27.10;49.70;;;;;;5046304;28;20032;-78
2022/08/02 10:06:47;;;;;;;7.80;2.00;;;27.30;49.50;;;;;;5050699;28;20040;-78
2022/08/02 10:09:13;;;;;;;3.22;1.52;;;27.10;50.80;;;;;;5047561;28;20123;-79
2022/08/02 10:11:40;;;;;;;7.45;2.13;;;27.50;49.70;;;;;;5049781;28;20056;-78
2022/08/02 10:14:07;;;;;;;4.57;1.65;;;27.60;49.10;;;;;;5052338;28;20029;-80
2022/08/02 10:16:35;;;;;;;5.78;2.00;;;27.70;49.00;;;;;;5054864;28;20051;-78
2022/08/02 10:19:03;;;;;;;6.30;2.10;;;27.60;48.60;;;;;;5045552;28;20392;-80
2022/08/02 10:21:35;;;;;;;4.25;1.80;;;27.40;49.70;;;;;;5047360;28;20128;-81
2022/08/02 10:24:16;;;;;;;3.42;2.03;;;27.40;49.50;;;;;;5052867;28;20028;-79
2022/08/02 10:26:44;;;;;;;4.53;2.05;;;27.60;49.20;;;;;;5049381;28;20608;-80
2022/08/02 10:29:15;;;;;;;4.15;1.90;;;27.50;49.90;;;;;;5052500;28;20047;-79
2022/08/02 10:31:50;;;;;;;5.35;2.10;;;27.50;51.00;;;;;;5049166;28;20567;-80
2022/08/02 10:34:19;;;;;;;7.68;2.38;;;28.10;49.70;;;;;;5045228;28;20043;-81
2022/08/02 10:36:47;;;;;;;4.50;2.45;;;28.40;48.70;;;;;;5036822;28;20091;-80
2022/08/02 10:39:12;;;;;;;5.57;2.20;;;28.70;48.00;;;;;;5051889;28;20066;-80
2022/08/02 10:41:50;;;;;;;6.53;1.95;;;29.00;47.40;;;;;;5055460;28;20675;-79
2022/08/02 10:44:30;;;;;;;4.38;2.10;;;28.50;46.50;;;;;;5061313;28;20040;-80
2022/08/02 10:47:21;;;;;;;5.30;2.15;;;28.30;49.10;;;;;;5059781;28;20069;-80
2022/08/02 10:49:58;;;;;;;4.53;1.90;;;28.20;49.90;;;;;;5059244;28;20106;-80
2022/08/02 10:52:25;;;;;;;5.72;2.35;;;28.50;48.20;;;;;;5058282;28;20048;-79
2022/08/02 10:54:55;;;;;;;6.30;3.35;;;28.60;47.50;;;;;;5057076;28;20045;-80
2022/08/02 10:57:33;;;;;;;3.35;2.00;;;28.70;47.80;;;;;;5058684;28;20083;-80
2022/08/02 11:00:20;;;;;;;5.25;2.20;;;28.90;48.50;;;;;;5062421;28;20128;-79
2022/08/02 11:02:47;;;;;;;4.38;2.22;;;28.90;47.90;;;;;;5063278;28;20152;-79
2022/08/02 11:05:16;;;;;;;4.53;2.20;;;29.10;47.20;;;;;;5063720;28;20448;-80
2022/08/02 11:07:45;;;;;;;4.50;2.55;;;29.00;46.80;;;;;;5056054;28;20393;-80
2022/08/02 11:10:32;;;;;;;4.93;2.08;;;29.00;47.40;;;;;;5060177;28;20052;-80
2022/08/02 11:13:14;;;;;;;4.40;1.95;;;29.00;47.50;;;;;;5059715;28;20563;-79
2022/08/02 11:15:52;;;;;;;6.60;2.22;;;28.90;48.40;;;;;;5061881;28;20358;-80
2022/08/02 11:18:19;;;;;;;3.90;2.03;;;28.60;49.90;;;;;;5058811;28;20046;-80
2022/08/02 11:20:44;;;;;;;5.40;2.38;;;28.70;49.60;;;;;;5061083;28;20044;-80
2022/08/02 11:23:33;;;;;;;6.25;2.30;;;29.10;48.20;;;;;;5062364;28;20036;-79
2022/08/02 11:25:59;;;;;;;4.38;1.80;;;29.00;48.80;;;;;;5056828;28;20041;-79
2022/08/02 11:28:25;;;;;;;4.43;2.40;;;29.20;48.40;;;;;;5064710;28;20040;-81
2022/08/02 11:31:01;;;;;;;5.68;2.00;;;29.40;47.40;;;;;;5067940;28;20052;-78
2022/08/02 11:33:31;;;;;;;5.32;2.08;;;29.60;47.90;;;;;;5070505;28;20048;-79
2022/08/02 11:36:06;;;;;;;5.30;2.00;;;29.40;47.60;;;;;;5065217;28;20048;-78
2022/08/02 11:38:32;;;;;;;3.05;1.90;;;29.10;48.60;;;;;;5062736;28;20049;-80
2022/08/02 11:40:58;;;;;;;4.75;1.80;;;29.10;47.90;;;;;;5063106;28;20059;-78
2022/08/02 11:43:26;;;;;;;3.45;1.77;;;29.30;47.70;;;;;;5060667;28;20032;-79
2022/08/02 11:45:53;;;;;;;2.83;1.52;;;29.50;47.60;;;;;;5060599;28;20048;-79
2022/08/02 11:48:36;;;;;;;3.60;1.88;;;29.70;47.40;;;;;;5065245;28;20172;-80
2022/08/02 11:51:07;;;;;;;3.53;1.50;;;29.60;47.70;;;;;;5068975;28;20250;-80
2022/08/02 11:53:50;;;;;;;4.85;1.90;;;29.60;47.90;;;;;;5063091;28;20191;-80
2022/08/02 11:56:27;;;;;;;5.32;1.73;;;30.00;47.50;;;;;;5054880;28;20072;-79
2022/08/02 11:59:05;;;;;;;9.30;2.50;;;30.40;46.10;;;;;;5064607;28;20041;-79
2022/08/02 12:01:33;;;;;;;6.75;2.20;;;30.00;46.60;;;;;;5058188;28;20491;-79
2022/08/02 12:03:59;;;;;;;4.43;2.05;;;29.00;48.90;;;;;;5063291;28;20041;-79
2022/08/02 12:06:29;;;;;;;4.88;1.95;;;29.00;49.20;;;;;;5062453;28;20479;-80
2022/08/02 12:09:13;;;;;;;7.97;2.13;;;28.80;49.80;;;;;;5060449;28;20510;-79
2022/08/02 12:11:41;;;;;;;3.63;1.92;;;29.10;49.10;;;;;;5057913;28;20049;-75
2022/08/02 12:14:07;;;;;;;6.50;2.03;;;29.40;48.30;;;;;;5061569;28;20523;-76
2022/08/02 12:19:22;;;;;;;3.60;1.90;;;29.30;48.80;;;;;;5061708;28;20075;-75
2022/08/02 12:22:04;;;;;;;5.20;2.13;;;29.10;49.90;;;;;;5060898;28;20152;-75
2022/08/02 12:24:30;;;;;;;4.93;2.10;;;29.10;49.20;;;;;;5059009;28;20033;-75
2022/08/02 12:26:56;;;;;;;6.93;2.00;;;29.20;49.20;;;;;;5061991;28;20048;-75
2022/08/02 12:29:39;;;;;;;4.60;1.70;;;29.40;48.20;;;;;;5063517;28;20056;-74
2022/08/02 12:32:05;;;;;;;6.30;1.85;;;29.00;49.30;;;;;;5068438;28;20044;-74
2022/08/02 12:34:32;;;;;;;6.93;1.80;;;29.00;49.40;;;;;;5062212;28;20543;-75
2022/08/02 12:36:59;;;;;;;5.15;1.63;;;29.00;49.10;;;;;;5067434;28;20112;-74
2022/08/02 12:39:42;;;;;;;5.57;1.90;;;29.00;49.50;;;;;;5060620;28;20025;-74
2022/08/02 12:42:11;;;;;;;5.05;1.55;;;29.40;48.40;;;;;;5053560;28;20029;-75
2022/08/02 12:44:48;;;;;;;5.05;2.00;;;29.70;47.90;;;;;;5058618;28;20037;-75
2022/08/02 12:47:14;;;;;;;4.25;1.80;;;29.80;48.00;;;;;;5059141;28;20031;-75
2022/08/02 12:49:39;;;;;;;6.50;1.77;;;30.00;47.50;;;;;;5060781;28;20033;-76
2022/08/02 12:52:19;;;;;;;4.75;1.77;;;29.90;47.70;;;;;;5060153;28;20524;-76
2022/08/02 12:54:47;;;;;;;9.48;2.30;;;30.00;47.60;;;;;;5057933;28;20425;-75